Time;durP1;ratioP1;P1;durP2;ratioP2;P2;SDS_P1;SDS_P2;PMS_P1;PMS_P2;Temp;Humidity;BMP_temperature;BMP_pressure;BME280_temperature;BME280_humidity;BME280_pressure;Samples;Min_cycle;Max_cycle;Signal;HPM_P1;HPM_P2
2021/08/20 00:01:23;;;;;;;6.50;2.87;;;19.10;85.50;;;;;;5051001;28;20211;-75
2021/08/20 00:03:48;;;;;;;5.27;2.87;;;19.10;86.50;;;;;;5047419;28;20207;-75
2021/08/20 00:06:14;;;;;;;4.33;2.23;;;19.00;86.80;;;;;;5052104;28;20867;-74
2021/08/20 00:08:40;;;;;;;4.57;2.40;;;18.70;87.30;;;;;;5051627;28;20214;-76
2021/08/20 00:11:07;;;;;;;4.03;2.67;;;18.70;87.60;;;;;;5050402;28;20208;-72
2021/08/20 00:13:33;;;;;;;4.07;2.33;;;18.70;87.60;;;;;;5051459;28;20182;-73
2021/08/20 00:15:59;;;;;;;3.27;2.43;;;18.60;87.40;;;;;;5052080;28;20436;-72
2021/08/20 00:18:25;;;;;;;6.70;2.27;;;18.60;87.30;;;;;;5050880;28;20491;-73
2021/08/20 00:20:52;;;;;;;3.80;2.00;;;18.70;87.30;;;;;;5051766;28;20439;-73
2021/08/20 00:23:18;;;;;;;2.87;2.17;;;18.70;86.60;;;;;;5039612;28;20430;-75
2021/08/20 00:25:44;;;;;;;4.30;2.30;;;18.70;86.20;;;;;;5044501;28;20433;-74
2021/08/20 00:28:10;;;;;;;3.67;1.90;;;18.80;85.00;;;;;;5044789;28;20486;-73
2021/08/20 00:30:36;;;;;;;2.33;1.80;;;18.80;83.10;;;;;;5051567;28;20565;-74
2021/08/20 00:33:01;;;;;;;3.13;1.80;;;18.90;81.90;;;;;;5041509;28;20468;-74
2021/08/20 00:35:27;;;;;;;3.10;2.13;;;18.90;80.80;;;;;;5049421;28;20207;-74
2021/08/20 00:37:53;;;;;;;4.37;1.80;;;18.80;80.30;;;;;;5046424;28;20232;-74
2021/08/20 00:40:19;;;;;;;3.13;1.93;;;18.60;80.80;;;;;;5039731;28;20926;-75
2021/08/20 00:42:47;;;;;;;8.77;2.60;;;18.60;81.40;;;;;;5042515;28;20222;-74
2021/08/20 00:45:13;;;;;;;3.73;1.90;;;18.60;82.50;;;;;;5039414;28;20443;-75
2021/08/20 00:47:40;;;;;;;4.00;2.67;;;18.70;84.40;;;;;;5040648;28;20442;-73
2021/08/20 00:50:07;;;;;;;4.67;2.30;;;18.80;84.30;;;;;;5050491;28;20789;-74
2021/08/20 00:52:34;;;;;;;4.23;2.40;;;18.80;85.20;;;;;;5043299;28;20440;-74
2021/08/20 00:55:00;;;;;;;4.13;2.27;;;18.80;85.20;;;;;;5050073;28;20426;-74
2021/08/20 00:57:28;;;;;;;4.07;2.83;;;18.80;85.20;;;;;;5050438;28;20506;-74
2021/08/20 00:59:53;;;;;;;5.00;2.10;;;18.80;85.20;;;;;;5043354;28;20429;-74
2021/08/20 01:02:19;;;;;;;3.70;2.00;;;18.90;85.50;;;;;;5050930;28;20454;-73
2021/08/20 01:04:45;;;;;;;6.10;2.67;;;18.80;84.70;;;;;;5050861;28;20265;-74
2021/08/20 01:07:11;;;;;;;6.83;1.87;;;18.90;84.10;;;;;;5044957;28;20186;-75
2021/08/20 01:09:37;;;;;;;5.00;1.93;;;18.90;83.40;;;;;;5049730;28;20794;-74
2021/08/20 01:12:04;;;;;;;3.47;2.10;;;18.90;83.30;;;;;;5039201;28;20310;-72
2021/08/20 01:14:37;;;;;;;2.93;2.00;;;18.90;83.40;;;;;;5040662;28;21222;-74
2021/08/20 01:17:08;;;;;;;3.30;2.23;;;18.90;83.30;;;;;;5046798;28;20433;-73
2021/08/20 01:19:36;;;;;;;4.60;2.30;;;18.80;83.30;;;;;;5047812;28;20931;-74
2021/08/20 01:22:06;;;;;;;3.80;2.43;;;18.80;84.30;;;;;;5045191;28;20529;-73
2021/08/20 01:24:32;;;;;;;4.13;2.57;;;18.90;84.70;;;;;;5045740;28;20464;-75
2021/08/20 01:26:58;;;;;;;3.90;2.53;;;18.90;84.40;;;;;;5046486;28;20972;-75
2021/08/20 01:29:24;;;;;;;4.80;2.27;;;18.90;84.40;;;;;;5049085;28;20198;-75
2021/08/20 01:31:50;;;;;;;2.47;1.90;;;18.90;84.40;;;;;;5049023;28;20721;-75
2021/08/20 01:34:16;;;;;;;4.07;2.60;;;18.80;85.20;;;;;;5043426;28;20192;-74
2021/08/20 01:36:42;;;;;;;4.80;2.30;;;18.80;85.20;;;;;;5045329;28;20865;-76
2021/08/20 01:39:08;;;;;;;4.97;2.37;;;18.80;86.20;;;;;;5041856;28;20505;-75
2021/08/20 01:41:34;;;;;;;4.30;2.63;;;18.80;86.20;;;;;;5044367;28;20253;-75
2021/08/20 01:44:01;;;;;;;4.23;2.50;;;18.70;86.20;;;;;;5045541;28;20412;-75
2021/08/20 01:46:28;;;;;;;3.77;2.30;;;18.70;85.70;;;;;;5041616;28;20427;-75
2021/08/20 01:48:56;;;;;;;4.57;2.20;;;18.80;85.60;;;;;;5049510;28;20493;-74
2021/08/20 01:51:24;;;;;;;6.33;2.33;;;18.80;85.00;;;;;;5050501;28;20494;-75
2021/08/20 01:53:51;;;;;;;4.20;2.17;;;18.70;84.70;;;;;;5051135;28;20892;-74
2021/08/20 01:56:25;;;;;;;3.13;2.17;;;18.70;85.30;;;;;;5054254;28;20432;-74
2021/08/20 01:58:52;;;;;;;4.13;2.13;;;18.70;85.30;;;;;;5054474;28;20467;-75
2021/08/20 02:01:18;;;;;;;4.20;2.20;;;18.70;85.00;;;;;;5051687;28;20453;-74
2021/08/20 02:03:43;;;;;;;3.20;2.40;;;18.80;84.70;;;;;;5048310;28;20515;-74
2021/08/20 02:06:09;;;;;;;3.60;2.00;;;18.80;85.30;;;;;;5050524;28;20644;-75
2021/08/20 02:08:35;;;;;;;4.00;2.20;;;18.80;84.90;;;;;;5051825;28;20272;-74
2021/08/20 02:11:02;;;;;;;3.03;2.13;;;18.80;85.60;;;;;;5048309;28;20222;-74
2021/08/20 02:13:28;;;;;;;4.10;2.47;;;18.80;85.90;;;;;;5041301;28;20515;-75
2021/08/20 02:15:54;;;;;;;4.60;2.40;;;18.80;85.70;;;;;;5052119;28;20461;-75
2021/08/20 02:18:20;;;;;;;2.70;2.20;;;18.80;86.00;;;;;;5051470;28;20466;-75
2021/08/20 02:20:46;;;;;;;3.10;2.37;;;18.70;86.30;;;;;;5052172;28;20453;-72
2021/08/20 02:23:12;;;;;;;5.07;2.20;;;18.70;86.50;;;;;;5044484;28;20186;-75
2021/08/20 02:25:38;;;;;;;3.50;2.23;;;18.70;86.50;;;;;;5053346;28;20443;-74
2021/08/20 02:28:04;;;;;;;4.20;2.40;;;18.70;86.60;;;;;;5050517;28;20432;-74
2021/08/20 02:30:30;;;;;;;9.93;2.33;;;18.70;86.30;;;;;;5051090;28;20431;-75
2021/08/20 02:32:57;;;;;;;3.70;1.67;;;18.70;86.00;;;;;;5046114;28;20539;-74
2021/08/20 02:35:24;;;;;;;3.90;2.23;;;18.70;85.70;;;;;;5050951;28;20446;-75
2021/08/20 02:37:50;;;;;;;5.13;2.40;;;18.70;85.00;;;;;;5055044;28;20463;-74
2021/08/20 02:40:16;;;;;;;5.70;2.23;;;18.70;85.00;;;;;;5057320;28;20530;-75
2021/08/20 02:42:42;;;;;;;3.47;2.00;;;18.60;85.60;;;;;;5066064;28;20422;-73
2021/08/20 02:45:08;;;;;;;3.67;2.07;;;18.60;86.00;;;;;;5051601;28;20195;-74
2021/08/20 02:47:34;;;;;;;6.77;2.10;;;18.60;86.50;;;;;;5044731;28;20238;-74
2021/08/20 02:50:00;;;;;;;4.73;2.77;;;18.60;86.60;;;;;;5051993;28;20433;-73
2021/08/20 02:52:26;;;;;;;3.03;2.50;;;18.70;87.00;;;;;;5047554;28;20484;-74
2021/08/20 02:54:52;;;;;;;3.20;1.97;;;18.60;87.00;;;;;;5044765;28;20196;-74
2021/08/20 02:57:22;;;;;;;3.30;2.07;;;18.70;87.10;;;;;;5055305;28;20217;-74
2021/08/20 02:59:48;;;;;;;5.10;2.33;;;18.70;86.90;;;;;;5052070;28;20449;-74
2021/08/20 03:02:13;;;;;;;3.53;1.93;;;18.70;86.80;;;;;;5045692;28;20470;-74
2021/08/20 03:04:39;;;;;;;5.40;2.27;;;18.70;86.80;;;;;;5048077;28;20181;-74
2021/08/20 03:07:05;;;;;;;4.60;2.47;;;18.70;86.80;;;;;;5039008;28;20674;-73
2021/08/20 03:09:30;;;;;;;4.60;2.57;;;18.70;86.80;;;;;;5048442;28;20223;-75
2021/08/20 03:11:56;;;;;;;4.67;2.23;;;18.60;86.00;;;;;;5046825;28;20209;-74
2021/08/20 03:14:22;;;;;;;4.90;2.90;;;18.70;85.70;;;;;;5045756;28;20186;-73
2021/08/20 03:16:48;;;;;;;3.10;2.40;;;18.70;85.50;;;;;;5044088;28;20237;-73
2021/08/20 03:19:14;;;;;;;3.60;2.40;;;18.70;85.60;;;;;;5045563;28;20473;-76
2021/08/20 03:21:40;;;;;;;3.90;2.23;;;18.70;86.50;;;;;;5041998;28;20209;-75
2021/08/20 03:24:05;;;;;;;4.30;2.43;;;18.70;86.60;;;;;;5044514;28;20186;-74
2021/08/20 03:26:31;;;;;;;3.47;2.23;;;18.60;86.60;;;;;;5046601;28;20552;-74
2021/08/20 03:28:57;;;;;;;3.83;2.20;;;18.60;86.60;;;;;;5042410;28;20277;-74
2021/08/20 03:31:23;;;;;;;4.30;2.03;;;18.70;86.60;;;;;;5048590;28;20212;-73
2021/08/20 03:33:48;;;;;;;2.33;2.17;;;18.70;86.50;;;;;;5044078;28;20604;-75
2021/08/20 03:36:15;;;;;;;4.17;2.63;;;18.70;86.20;;;;;;5044413;28;20213;-76
2021/08/20 03:38:40;;;;;;;3.60;2.20;;;18.70;86.00;;;;;;5043195;28;20260;-74
2021/08/20 03:41:06;;;;;;;3.10;1.90;;;18.70;85.60;;;;;;5041515;28;20441;-74
2021/08/20 03:43:32;;;;;;;4.70;2.00;;;18.70;85.50;;;;;;5041608;28;20180;-73
2021/08/20 03:45:58;;;;;;;5.93;2.10;;;18.70;85.70;;;;;;5033340;28;20650;-73
2021/08/20 03:48:24;;;;;;;4.30;2.80;;;18.70;86.50;;;;;;5048119;28;20199;-74
2021/08/20 03:50:49;;;;;;;5.10;2.43;;;18.60;86.90;;;;;;5039229;28;20209;-75
2021/08/20 03:53:15;;;;;;;3.03;2.00;;;18.60;87.30;;;;;;5045278;28;20435;-75
2021/08/20 03:55:41;;;;;;;3.63;2.60;;;18.50;87.10;;;;;;5042641;28;20263;-75
2021/08/20 03:58:07;;;;;;;5.00;2.10;;;18.50;87.40;;;;;;5047782;28;20504;-75
2021/08/20 04:00:34;;;;;;;4.07;2.20;;;18.50;87.80;;;;;;5045068;28;20464;-76
2021/08/20 04:03:00;;;;;;;5.40;2.57;;;18.40;87.60;;;;;;5045036;28;20568;-74
2021/08/20 04:05:26;;;;;;;3.50;2.00;;;18.50;87.60;;;;;;5038758;28;20424;-75
2021/08/20 04:07:52;;;;;;;4.13;2.13;;;18.50;87.40;;;;;;5045235;28;20191;-76
2021/08/20 04:10:17;;;;;;;3.93;2.10;;;18.50;86.80;;;;;;5045505;28;20620;-76
2021/08/20 04:12:43;;;;;;;5.70;2.33;;;18.40;86.90;;;;;;5042387;28;20193;-74
2021/08/20 04:15:09;;;;;;;2.83;2.07;;;18.40;87.00;;;;;;5041244;28;20249;-74
2021/08/20 04:17:35;;;;;;;3.97;2.20;;;18.50;86.80;;;;;;5047030;28;20631;-75
2021/08/20 04:20:01;;;;;;;3.33;2.17;;;18.60;86.60;;;;;;5038523;28;20435;-75
2021/08/20 04:22:27;;;;;;;5.13;2.30;;;18.60;86.90;;;;;;5046925;28;20200;-73
2021/08/20 04:24:52;;;;;;;3.77;2.47;;;18.60;87.00;;;;;;5037021;28;20187;-75
2021/08/20 04:27:18;;;;;;;2.73;2.40;;;18.60;87.00;;;;;;5045044;28;20190;-74
2021/08/20 04:29:45;;;;;;;2.90;2.27;;;18.60;87.10;;;;;;5043664;28;20645;-74
2021/08/20 04:32:11;;;;;;;4.23;2.50;;;18.70;87.00;;;;;;5050590;28;20496;-75
2021/08/20 04:34:36;;;;;;;4.00;2.60;;;18.70;87.60;;;;;;5048507;28;20435;-75
2021/08/20 04:37:02;;;;;;;4.77;2.57;;;18.70;87.30;;;;;;5048315;28;20424;-75
2021/08/20 04:39:28;;;;;;;10.87;2.57;;;18.60;87.10;;;;;;5045426;28;20200;-74
2021/08/20 04:41:54;;;;;;;4.23;2.80;;;18.50;87.30;;;;;;5044241;28;20442;-74
2021/08/20 04:44:20;;;;;;;6.77;2.73;;;18.30;87.80;;;;;;5043210;28;20182;-74
2021/08/20 04:46:45;;;;;;;4.33;2.20;;;18.20;88.40;;;;;;5036211;28;20551;-74
2021/08/20 04:49:11;;;;;;;3.13;2.13;;;18.20;88.70;;;;;;5049362;28;20200;-76
2021/08/20 04:51:37;;;;;;;4.90;2.90;;;18.20;88.70;;;;;;5053001;28;20200;-77
2021/08/20 04:54:05;;;;;;;4.43;2.97;;;18.20;88.70;;;;;;5054026;28;20203;-76
2021/08/20 04:56:31;;;;;;;4.03;2.80;;;18.20;88.70;;;;;;5046202;28;20178;-78
2021/08/20 04:58:56;;;;;;;4.87;3.13;;;18.30;88.70;;;;;;5052885;28;20465;-76
2021/08/20 05:01:22;;;;;;;3.50;2.30;;;18.30;88.70;;;;;;5050074;28;20197;-77
2021/08/20 05:03:48;;;;;;;7.20;4.57;;;18.30;88.70;;;;;;5047004;28;20654;-76
2021/08/20 05:06:14;;;;;;;3.30;2.60;;;18.30;88.70;;;;;;5049236;28;20190;-77
2021/08/20 05:08:40;;;;;;;3.97;3.00;;;18.40;88.60;;;;;;5043431;28;20419;-78
2021/08/20 05:11:06;;;;;;;4.00;2.40;;;18.50;88.00;;;;;;5047574;28;20732;-76
2021/08/20 05:13:32;;;;;;;4.17;2.40;;;18.60;87.60;;;;;;5041868;28;20510;-75
2021/08/20 05:15:58;;;;;;;3.93;2.50;;;18.70;87.00;;;;;;5050051;28;20488;-75
2021/08/20 05:18:23;;;;;;;8.40;2.40;;;18.60;87.10;;;;;;5048332;28;20243;-72
2021/08/20 05:20:49;;;;;;;4.63;2.60;;;18.70;87.30;;;;;;5042639;28;20217;-74
2021/08/20 05:23:15;;;;;;;6.07;2.60;;;18.80;87.00;;;;;;5046069;28;20225;-73
2021/08/20 05:25:41;;;;;;;3.50;2.60;;;18.80;86.90;;;;;;5045515;28;20176;-72
2021/08/20 05:28:09;;;;;;;4.23;2.60;;;18.80;86.90;;;;;;5044161;28;21142;-74
2021/08/20 05:30:35;;;;;;;5.10;2.93;;;18.80;86.90;;;;;;5052513;28;20902;-73
2021/08/20 05:33:01;;;;;;;4.13;2.40;;;18.90;86.30;;;;;;5046357;28;20451;-74
2021/08/20 05:35:27;;;;;;;4.93;2.60;;;19.00;85.90;;;;;;5050606;28;20815;-74
2021/08/20 05:37:54;;;;;;;5.00;2.50;;;19.00;85.90;;;;;;5043344;28;20473;-74
2021/08/20 05:40:20;;;;;;;7.03;3.33;;;19.10;86.00;;;;;;5053552;28;20178;-75
2021/08/20 05:42:46;;;;;;;4.53;2.60;;;19.10;85.90;;;;;;5048269;28;20446;-74
2021/08/20 05:45:12;;;;;;;4.33;2.93;;;19.20;85.90;;;;;;5046864;28;20443;-74
2021/08/20 05:47:38;;;;;;;6.47;3.27;;;19.20;85.90;;;;;;5042683;28;20477;-74
2021/08/20 05:50:06;;;;;;;5.37;2.67;;;19.30;85.60;;;;;;5045903;28;20659;-74
2021/08/20 05:52:40;;;;;;;4.63;2.83;;;19.40;85.60;;;;;;5041422;28;20467;-74
2021/08/20 05:55:07;;;;;;;4.60;2.77;;;19.50;85.30;;;;;;5046112;28;20415;-74
2021/08/20 05:57:33;;;;;;;4.40;2.60;;;19.60;84.40;;;;;;5041449;28;20418;-74
2021/08/20 05:59:59;;;;;;;4.33;2.63;;;19.60;84.10;;;;;;5044890;28;20424;-74
2021/08/20 06:02:25;;;;;;;7.90;3.40;;;19.70;83.80;;;;;;5041343;28;20748;-74
2021/08/20 06:04:50;;;;;;;6.07;2.97;;;19.70;83.10;;;;;;5044219;28;20635;-74
2021/08/20 06:07:16;;;;;;;5.60;3.30;;;19.70;83.10;;;;;;5044178;28;20714;-74
2021/08/20 06:09:42;;;;;;;10.30;3.07;;;19.70;83.40;;;;;;5041844;28;20190;-75
2021/08/20 06:12:08;;;;;;;6.83;4.03;;;19.70;83.40;;;;;;5040923;28;20455;-74
2021/08/20 06:14:34;;;;;;;4.90;2.97;;;19.70;83.60;;;;;;5039012;28;20189;-74
2021/08/20 06:16:59;;;;;;;6.20;3.40;;;19.70;83.80;;;;;;5041143;28;20247;-73
2021/08/20 06:19:26;;;;;;;5.73;3.10;;;19.60;84.00;;;;;;5045491;28;20280;-74
2021/08/20 06:21:52;;;;;;;4.97;3.27;;;19.60;84.70;;;;;;5039664;28;20230;-74
2021/08/20 06:24:18;;;;;;;4.70;3.33;;;19.60;84.40;;;;;;5044862;28;20421;-73
2021/08/20 06:26:47;;;;;;;5.40;3.37;;;19.70;84.10;;;;;;5043042;28;20411;-74
2021/08/20 06:29:15;;;;;;;5.10;2.97;;;19.50;83.40;;;;;;5042797;28;20423;-75
2021/08/20 06:31:41;;;;;;;5.57;3.30;;;19.60;81.90;;;;;;5049114;28;20446;-74
2021/08/20 06:34:06;;;;;;;4.50;3.10;;;19.70;82.20;;;;;;5043627;28;20456;-74
2021/08/20 06:36:32;;;;;;;6.60;4.33;;;19.80;82.20;;;;;;5039724;28;20203;-73
2021/08/20 06:38:58;;;;;;;7.97;3.67;;;19.90;81.50;;;;;;5042334;28;20247;-74
2021/08/20 06:41:25;;;;;;;6.47;3.87;;;19.90;81.80;;;;;;5037654;28;20290;-74
2021/08/20 06:43:50;;;;;;;7.80;3.43;;;19.90;82.10;;;;;;5048220;28;20450;-73
2021/08/20 06:46:16;;;;;;;6.83;4.80;;;20.00;81.90;;;;;;5039042;28;20322;-74
2021/08/20 06:48:42;;;;;;;6.30;4.00;;;20.10;81.50;;;;;;5042816;28;20717;-75
2021/08/20 06:51:07;;;;;;;9.60;5.20;;;20.10;81.70;;;;;;5045499;28;20305;-74
2021/08/20 06:53:34;;;;;;;8.70;4.47;;;20.10;81.50;;;;;;5037797;28;20193;-73
2021/08/20 06:56:00;;;;;;;8.03;4.60;;;20.20;81.70;;;;;;5041301;28;20551;-75
2021/08/20 06:58:25;;;;;;;8.73;4.70;;;20.30;81.20;;;;;;5046260;28;20462;-75
2021/08/20 07:00:51;;;;;;;9.00;4.97;;;20.30;81.20;;;;;;5043481;28;20604;-73
2021/08/20 07:03:17;;;;;;;8.70;4.70;;;20.30;81.50;;;;;;5042778;28;20193;-74
2021/08/20 07:05:42;;;;;;;7.83;4.60;;;20.30;81.90;;;;;;5037469;28;20675;-74
2021/08/20 07:08:08;;;;;;;11.57;5.73;;;20.40;81.90;;;;;;5037846;28;20200;-74
2021/08/20 07:10:34;;;;;;;10.60;6.20;;;20.40;81.40;;;;;;5040323;28;20211;-75
2021/08/20 07:13:00;;;;;;;9.77;4.90;;;20.30;81.70;;;;;;5043456;28;20283;-75
2021/08/20 07:15:25;;;;;;;11.87;6.13;;;20.30;82.20;;;;;;5036890;28;20615;-74
2021/08/20 07:17:51;;;;;;;9.33;6.53;;;20.30;82.10;;;;;;5041486;28;20200;-74
2021/08/20 07:20:17;;;;;;;12.60;6.00;;;20.20;82.70;;;;;;5050184;28;20196;-75
2021/08/20 07:22:42;;;;;;;10.80;6.30;;;20.30;82.50;;;;;;5042198;28;20303;-74
2021/08/20 07:25:08;;;;;;;10.97;5.90;;;20.40;82.40;;;;;;5043526;28;20276;-74
2021/08/20 07:27:34;;;;;;;9.70;6.53;;;20.50;81.90;;;;;;5044505;28;20220;-75
2021/08/20 07:30:01;;;;;;;11.30;6.27;;;20.60;81.20;;;;;;5045575;28;20455;-74
2021/08/20 07:32:26;;;;;;;10.60;5.87;;;20.60;81.40;;;;;;5050529;28;20303;-74
2021/08/20 07:34:52;;;;;;;10.10;5.70;;;20.60;81.40;;;;;;5050588;28;21001;-74
2021/08/20 07:37:18;;;;;;;11.73;5.70;;;20.50;81.70;;;;;;5049367;28;20584;-75
2021/08/20 07:39:43;;;;;;;12.30;6.00;;;20.60;81.90;;;;;;5044803;28;20220;-74
2021/08/20 07:42:09;;;;;;;9.73;5.80;;;20.80;81.80;;;;;;5049964;28;20259;-74
2021/08/20 07:44:35;;;;;;;11.50;5.80;;;20.90;81.10;;;;;;5047412;28;20197;-74
2021/08/20 07:47:00;;;;;;;7.73;5.13;;;20.90;80.20;;;;;;5044947;28;20193;-74
2021/08/20 07:49:29;;;;;;;12.43;6.70;;;21.00;79.70;;;;;;5045845;28;20185;-74
2021/08/20 07:51:56;;;;;;;16.03;6.47;;;21.00;79.70;;;;;;5038971;28;20214;-74
2021/08/20 07:54:23;;;;;;;10.87;6.40;;;21.00;79.70;;;;;;5043439;28;20421;-74
2021/08/20 07:56:48;;;;;;;9.60;5.90;;;21.00;80.00;;;;;;5046681;28;20907;-74
2021/08/20 07:59:14;;;;;;;10.43;5.43;;;21.00;80.50;;;;;;5041706;28;20468;-74
2021/08/20 08:01:40;;;;;;;8.10;5.27;;;21.00;79.20;;;;;;5048314;28;20695;-74
2021/08/20 08:04:05;;;;;;;12.47;6.70;;;21.00;79.20;;;;;;5045469;28;20220;-74
2021/08/20 08:06:32;;;;;;;10.50;6.73;;;21.00;79.60;;;;;;5044347;28;20273;-74
2021/08/20 08:08:58;;;;;;;11.57;6.97;;;21.00;78.40;;;;;;5044711;28;20202;-74
2021/08/20 08:11:24;;;;;;;9.43;6.07;;;21.10;78.60;;;;;;5040809;28;20457;-75
2021/08/20 08:13:49;;;;;;;12.60;6.50;;;21.20;78.60;;;;;;5041031;28;20482;-74
2021/08/20 08:16:15;;;;;;;9.83;5.73;;;21.20;78.40;;;;;;5042097;28;20209;-74
2021/08/20 08:18:41;;;;;;;8.70;5.57;;;21.30;79.00;;;;;;5045854;28;20213;-74
2021/08/20 08:21:07;;;;;;;8.47;5.17;;;21.50;78.30;;;;;;5039844;28;20202;-74
2021/08/20 08:23:33;;;;;;;13.13;6.27;;;21.60;77.60;;;;;;5043871;28;20178;-74
2021/08/20 08:25:58;;;;;;;8.50;5.80;;;21.60;77.40;;;;;;5045602;28;20649;-75
2021/08/20 08:28:24;;;;;;;9.67;5.40;;;21.70;77.00;;;;;;5042131;28;20428;-73
2021/08/20 08:30:50;;;;;;;6.73;4.90;;;21.60;75.50;;;;;;5047854;28;20219;-74
2021/08/20 08:33:18;;;;;;;8.47;4.90;;;21.40;76.70;;;;;;5043640;28;20184;-73
2021/08/20 08:35:45;;;;;;;7.53;5.60;;;21.40;77.40;;;;;;5049322;28;20459;-75
2021/08/20 08:38:13;;;;;;;6.80;5.13;;;21.40;76.20;;;;;;5042070;28;20466;-74
2021/08/20 08:40:48;;;;;;;8.80;5.07;;;21.50;75.90;;;;;;5048388;28;20457;-74
2021/08/20 08:43:15;;;;;;;9.93;6.40;;;21.60;75.80;;;;;;5048682;28;20483;-74
2021/08/20 08:45:42;;;;;;;12.57;6.50;;;21.70;75.40;;;;;;5042319;28;20433;-74
2021/08/20 08:48:13;;;;;;;8.23;6.17;;;21.80;74.90;;;;;;5048601;28;20851;-74
2021/08/20 08:50:42;;;;;;;6.50;4.80;;;21.80;75.20;;;;;;5048811;28;20456;-75
2021/08/20 08:53:08;;;;;;;10.23;5.73;;;21.90;75.20;;;;;;5048968;28;20487;-73
2021/08/20 08:55:34;;;;;;;8.27;5.37;;;22.20;74.00;;;;;;5049305;28;20433;-75
2021/08/20 08:57:59;;;;;;;7.47;5.40;;;22.50;72.40;;;;;;5049515;28;20219;-74
2021/08/20 09:00:37;;;;;;;7.80;4.70;;;22.70;69.20;;;;;;5045043;28;20191;-74
2021/08/20 09:03:06;;;;;;;6.30;4.60;;;22.80;68.60;;;;;;5049005;28;20183;-74
2021/08/20 09:05:43;;;;;;;8.67;5.07;;;22.60;68.50;;;;;;5040775;28;20521;-74
2021/08/20 09:08:13;;;;;;;10.00;7.07;;;22.50;69.70;;;;;;5049609;28;20441;-74
2021/08/20 09:10:48;;;;;;;12.33;7.87;;;22.10;73.50;;;;;;5049318;28;20967;-73
2021/08/20 09:13:15;;;;;;;11.80;9.03;;;21.80;75.40;;;;;;5048644;28;20457;-74
2021/08/20 09:15:40;;;;;;;14.00;8.70;;;21.50;77.00;;;;;;5048859;28;20899;-74
2021/08/20 09:18:06;;;;;;;12.13;7.90;;;21.30;78.30;;;;;;5049342;28;20471;-74
2021/08/20 09:20:36;;;;;;;12.93;8.43;;;21.30;78.40;;;;;;5042103;28;20780;-74
2021/08/20 09:23:16;;;;;;;12.43;7.90;;;21.10;78.90;;;;;;5044774;28;20471;-75
2021/08/20 09:25:46;;;;;;;13.03;7.93;;;21.10;79.50;;;;;;5047422;28;20431;-74
2021/08/20 09:28:26;;;;;;;15.03;8.70;;;21.10;79.60;;;;;;5049324;28;20423;-75
2021/08/20 09:30:55;;;;;;;13.00;8.00;;;21.30;79.20;;;;;;5049424;28;20856;-74
2021/08/20 09:33:27;;;;;;;11.53;7.63;;;21.30;78.40;;;;;;5041355;28;20511;-74
2021/08/20 09:36:13;;;;;;;9.77;6.90;;;21.50;78.00;;;;;;5044794;28;20440;-74
2021/08/20 09:38:42;;;;;;;10.63;7.70;;;21.60;76.40;;;;;;5035636;28;20515;-74
2021/08/20 09:41:15;;;;;;;12.43;7.70;;;21.60;73.60;;;;;;5040690;28;20440;-74
2021/08/20 09:43:43;;;;;;;8.23;6.33;;;21.50;74.60;;;;;;5043568;28;20430;-74
2021/08/20 09:46:14;;;;;;;11.90;7.57;;;21.50;74.60;;;;;;5038585;28;20956;-74
2021/08/20 09:48:46;;;;;;;11.10;7.10;;;21.60;74.80;;;;;;5040623;28;20926;-74
2021/08/20 09:51:40;;;;;;;10.17;6.80;;;21.80;73.60;;;;;;5038621;28;20481;-74
2021/08/20 09:54:24;;;;;;;8.70;5.87;;;22.20;72.40;;;;;;5042788;28;20465;-74
2021/08/20 09:56:50;;;;;;;11.57;6.47;;;22.60;70.70;;;;;;5044257;28;20445;-74
2021/08/20 09:59:17;;;;;;;8.43;5.77;;;22.80;68.80;;;;;;5033157;28;20469;-77
2021/08/20 10:01:47;;;;;;;8.70;5.73;;;22.90;67.50;;;;;;5040933;28;21055;-75
2021/08/20 10:04:15;;;;;;;10.07;6.10;;;23.00;67.60;;;;;;5036274;28;20419;-75
2021/08/20 10:06:46;;;;;;;8.57;6.00;;;23.30;67.30;;;;;;5042955;28;20424;-73
2021/08/20 10:09:13;;;;;;;9.30;5.83;;;23.50;66.90;;;;;;5043691;28;20433;-75
2021/08/20 10:11:46;;;;;;;8.10;5.70;;;23.50;65.30;;;;;;5042059;28;20852;-74
2021/08/20 10:14:13;;;;;;;7.50;5.67;;;23.30;66.00;;;;;;5042444;28;20434;-74
2021/08/20 10:16:39;;;;;;;8.57;6.47;;;23.20;66.60;;;;;;5044165;28;20423;-74
2021/08/20 10:19:07;;;;;;;10.90;7.37;;;23.30;67.60;;;;;;5039288;28;20504;-74
2021/08/20 10:21:36;;;;;;;8.87;6.23;;;22.90;69.50;;;;;;5042704;28;20521;-74
2021/08/20 10:24:04;;;;;;;8.00;6.23;;;22.70;69.80;;;;;;5035210;28;20423;-75
2021/08/20 10:26:30;;;;;;;11.70;7.60;;;22.50;71.00;;;;;;5042908;28;20422;-73
2021/08/20 10:28:58;;;;;;;10.73;7.13;;;22.20;71.30;;;;;;5044995;28;20991;-74
2021/08/20 10:31:24;;;;;;;11.33;6.80;;;22.10;72.30;;;;;;5053535;28;20452;-74
2021/08/20 10:33:50;;;;;;;9.00;6.20;;;22.20;72.10;;;;;;5052260;28;20931;-74
2021/08/20 10:36:34;;;;;;;11.63;7.00;;;22.20;72.00;;;;;;5051238;28;20453;-75
2021/08/20 10:39:02;;;;;;;10.20;6.17;;;22.30;70.80;;;;;;5045698;28;20199;-76
2021/08/20 10:41:27;;;;;;;8.90;5.90;;;22.40;70.20;;;;;;5046799;28;20446;-73
2021/08/20 10:44:09;;;;;;;7.63;5.90;;;22.40;70.10;;;;;;5051769;28;20425;-74
2021/08/20 10:46:36;;;;;;;7.57;5.80;;;22.60;68.90;;;;;;5045409;28;20228;-74
2021/08/20 10:49:11;;;;;;;7.70;5.20;;;22.90;68.90;;;;;;5056353;28;20424;-75
2021/08/20 10:51:52;;;;;;;8.87;5.57;;;23.00;66.10;;;;;;5051763;28;20948;-74
2021/08/20 10:54:24;;;;;;;8.93;6.20;;;23.00;65.80;;;;;;5050466;28;20410;-75
2021/08/20 10:56:50;;;;;;;8.50;5.43;;;23.20;66.00;;;;;;5051933;28;20429;-74
2021/08/20 10:59:38;;;;;;;9.37;5.30;;;23.80;64.10;;;;;;5052383;28;20495;-74
2021/08/20 11:02:19;;;;;;;8.57;4.80;;;24.60;62.20;;;;;;5052195;28;20434;-74
2021/08/20 11:05:04;;;;;;;6.80;4.93;;;25.40;59.70;;;;;;5048155;28;20422;-74
2021/08/20 11:07:39;;;;;;;10.03;5.33;;;26.30;57.40;;;;;;5044372;28;20734;-74
2021/08/20 11:10:08;;;;;;;9.20;5.43;;;26.70;55.20;;;;;;5050181;28;20827;-74
2021/08/20 11:12:52;;;;;;;7.33;4.50;;;26.60;54.80;;;;;;5051478;28;20528;-75
2021/08/20 11:15:18;;;;;;;6.37;5.07;;;26.80;55.00;;;;;;5049156;28;20532;-75
2021/08/20 11:18:11;;;;;;;6.00;5.00;;;26.70;55.30;;;;;;5051645;28;20458;-75
2021/08/20 11:20:44;;;;;;;6.10;5.03;;;26.60;55.00;;;;;;5043716;28;20226;-74
2021/08/20 11:23:10;;;;;;;6.27;4.97;;;25.80;56.40;;;;;;5040833;28;20426;-75
2021/08/20 11:25:44;;;;;;;7.50;5.40;;;25.50;57.40;;;;;;5049255;28;20416;-74
2021/08/20 11:28:19;;;;;;;5.40;4.50;;;25.30;57.70;;;;;;5041014;28;20426;-74
2021/08/20 11:31:08;;;;;;;7.53;5.10;;;25.40;57.00;;;;;;5048834;28;20599;-75
2021/08/20 11:33:43;;;;;;;5.60;5.20;;;25.40;56.60;;;;;;5050815;28;20810;-75
2021/08/20 11:36:16;;;;;;;7.50;5.40;;;24.80;57.60;;;;;;5046070;28;20999;-75
2021/08/20 11:38:55;;;;;;;5.07;4.77;;;25.00;57.80;;;;;;5043573;28;20912;-74
2021/08/20 11:41:30;;;;;;;7.27;5.33;;;25.50;56.90;;;;;;5044322;28;20528;-75
2021/08/20 11:44:02;;;;;;;8.40;5.97;;;26.00;55.40;;;;;;5046242;28;20431;-74
2021/08/20 11:46:30;;;;;;;6.47;5.27;;;26.00;55.00;;;;;;5041873;28;20511;-75
2021/08/20 11:48:58;;;;;;;9.43;5.20;;;26.50;54.60;;;;;;5047073;28;20556;-74
2021/08/20 11:51:25;;;;;;;9.50;5.57;;;27.00;53.20;;;;;;5048722;28;20446;-74
2021/08/20 11:53:51;;;;;;;7.40;5.07;;;27.70;52.00;;;;;;5049181;28;21022;-73
2021/08/20 11:56:17;;;;;;;7.03;4.70;;;28.20;49.70;;;;;;5047775;28;20531;-74
2021/08/20 11:58:44;;;;;;;8.00;5.77;;;28.30;48.50;;;;;;5041856;28;20760;-74
2021/08/20 12:01:14;;;;;;;6.87;5.03;;;27.50;49.80;;;;;;5047916;28;20484;-73
2021/08/20 12:03:52;;;;;;;6.33;5.07;;;26.90;51.30;;;;;;5044308;28;20415;-74
2021/08/20 12:06:18;;;;;;;6.37;4.70;;;26.40;52.90;;;;;;5047379;28;20432;-74
2021/08/20 12:08:46;;;;;;;6.23;4.60;;;25.70;54.80;;;;;;5042304;28;20432;-74
2021/08/20 12:11:12;;;;;;;9.13;4.90;;;25.30;55.60;;;;;;5044193;28;20780;-74
2021/08/20 12:13:46;;;;;;;6.60;4.93;;;25.50;55.70;;;;;;5039540;28;20508;-75
2021/08/20 12:16:39;;;;;;;7.00;4.70;;;25.90;55.60;;;;;;5043790;28;20422;-75
2021/08/20 12:19:14;;;;;;;7.53;5.80;;;26.40;53.30;;;;;;5049982;28;20460;-74
2021/08/20 12:21:44;;;;;;;7.50;5.00;;;25.80;54.50;;;;;;5043023;28;20790;-74
2021/08/20 12:24:10;;;;;;;9.07;6.17;;;25.90;54.40;;;;;;5041937;28;20422;-74
2021/08/20 12:26:35;;;;;;;7.30;4.90;;;26.30;53.70;;;;;;5039302;28;20420;-74
2021/08/20 12:29:18;;;;;;;5.20;4.50;;;26.90;52.40;;;;;;5042759;28;20530;-76
2021/08/20 12:31:58;;;;;;;7.23;4.53;;;27.30;51.40;;;;;;5040401;28;20260;-74
2021/08/20 12:34:32;;;;;;;6.50;5.27;;;27.20;51.30;;;;;;5041289;28;20421;-74
2021/08/20 12:37:00;;;;;;;5.40;4.67;;;27.00;51.60;;;;;;5045192;28;20526;-74
2021/08/20 12:39:34;;;;;;;6.50;4.53;;;27.00;51.20;;;;;;5038823;28;20477;-75
2021/08/20 12:42:22;;;;;;;4.30;3.93;;;26.70;52.20;;;;;;5041961;28;20444;-73
2021/08/20 12:45:07;;;;;;;6.00;4.30;;;26.40;52.80;;;;;;5034512;28;20433;-74
2021/08/20 12:47:34;;;;;;;6.90;4.83;;;26.20;53.80;;;;;;5045888;28;20435;-75
2021/08/20 12:50:08;;;;;;;4.97;4.00;;;25.90;53.80;;;;;;5044817;28;20484;-74